Olton, Texas
Current Conditions -  °F | °C
As of 2:55 PM on Friday 31 Oct 2014 (Local Time) from KPVW Reporting Station
Clear Clear  
Wind Chill: 62°   Ceiling: Unl
Heat Index: 62°   Visibility: 10mi
Dew Point: 30°   Wind: 10mph
Humidity: 30%   Direction: 80°E
Pressure: 30.36"   Gusts: NA
Location:  34.18°N, 102.13°W
Report Text: KPVW 311955Z AUTO 08009KT 10SM CLR 17/M01 A3036 RMK AO2 T01671011
Loading
Personal Weather Stations






























Interactive Weather Map
Tropical Storm Tracking
New forecast layout! Learn more

10-Day Weather Forecast

Advertisements
Track Severe Weather on mobile